Time;durP1;ratioP1;P1;durP2;ratioP2;P2;SDS_P1;SDS_P2;PMS_P1;PMS_P2;Temp;Humidity;BMP_temperature;BMP_pressure;BME280_temperature;BME280_humidity;BME280_pressure;Samples;Min_cycle;Max_cycle;Signal;HPM_P1;HPM_P2
2024/01/02 00:00:58;;;;;;;2.77;1.30;;;15.90;90.40;;;;;;4991750;28;20185;-93
2024/01/02 00:03:24;;;;;;;2.83;1.50;;;15.90;90.40;;;;;;4992196;28;20176;-92
2024/01/02 00:05:50;;;;;;;2.57;1.20;;;15.90;90.40;;;;;;4992576;28;20200;-92
2024/01/02 00:08:16;;;;;;;2.50;1.20;;;15.90;90.50;;;;;;4939046;28;1576870;-92
2024/01/02 00:10:45;;;;;;;1.70;1.27;;;15.90;90.50;;;;;;4991350;28;20429;-92
2024/01/02 00:13:10;;;;;;;2.63;1.60;;;15.90;90.50;;;;;;4993339;28;20543;-91
2024/01/02 00:15:39;;;;;;;2.40;1.20;;;15.90;90.40;;;;;;4992956;28;20181;-92
2024/01/02 00:18:08;;;;;;;2.13;1.27;;;15.80;90.50;;;;;;4992979;28;20174;-92
2024/01/02 00:20:33;;;;;;;2.50;1.03;;;15.80;90.50;;;;;;4993047;28;20380;-92
2024/01/02 00:22:59;;;;;;;4.67;1.60;;;15.80;90.50;;;;;;4992567;28;20186;-92
2024/01/02 00:25:25;;;;;;;2.03;1.10;;;15.80;90.40;;;;;;4991078;28;20213;-92
2024/01/02 00:27:51;;;;;;;1.97;1.10;;;15.80;90.40;;;;;;4992951;28;20466;-92
2024/01/02 00:30:16;;;;;;;2.20;1.00;;;15.80;90.50;;;;;;4992171;28;20181;-92
2024/01/02 00:32:45;;;;;;;1.90;1.20;;;15.80;90.50;;;;;;4991165;28;20173;-92
2024/01/02 00:35:14;;;;;;;3.33;1.00;;;15.80;90.40;;;;;;4992001;28;20245;-92
2024/01/02 00:37:44;;;;;;;2.23;1.23;;;15.80;90.50;;;;;;4993537;28;20173;-92
2024/01/02 00:40:10;;;;;;;1.83;1.10;;;15.80;90.50;;;;;;4993019;28;20271;-92
2024/01/02 00:42:39;;;;;;;2.10;1.10;;;15.80;90.50;;;;;;4993641;28;20182;-92
2024/01/02 00:45:05;;;;;;;2.27;1.10;;;15.80;90.50;;;;;;4993249;28;20233;-92
2024/01/02 00:47:32;;;;;;;2.23;1.37;;;15.80;90.50;;;;;;4994530;28;20188;-92
2024/01/02 00:49:57;;;;;;;1.77;1.10;;;15.80;90.50;;;;;;4993500;28;20173;-93
2024/01/02 00:52:23;;;;;;;1.57;1.00;;;15.70;90.50;;;;;;4994400;28;20265;-92
2024/01/02 00:54:51;;;;;;;1.47;1.00;;;15.70;90.50;;;;;;4993445;28;20206;-92
2024/01/02 00:57:25;;;;;;;2.60;1.30;;;15.70;90.50;;;;;;4993362;28;20435;-92
2024/01/02 00:59:54;;;;;;;2.10;1.07;;;15.70;90.50;;;;;;4994756;28;20184;-92
2024/01/02 01:02:20;;;;;;;2.93;1.30;;;15.70;90.50;;;;;;4993434;28;20174;-92
2024/01/02 01:04:48;;;;;;;0.83;0.80;;;15.70;90.50;;;;;;4994878;28;20664;-92
2024/01/02 01:07:17;;;;;;;1.93;1.00;;;15.70;90.50;;;;;;4992725;28;20190;-92
2024/01/02 01:09:46;;;;;;;2.03;1.10;;;15.80;90.50;;;;;;4992502;28;20171;-92
2024/01/02 01:12:12;;;;;;;1.40;1.00;;;15.70;90.50;;;;;;4991878;28;20176;-92
2024/01/02 01:14:37;;;;;;;1.17;0.97;;;15.70;90.50;;;;;;4993893;28;20238;-92
2024/01/02 01:17:07;;;;;;;2.23;1.30;;;15.70;90.50;;;;;;4992886;28;20187;-92
2024/01/02 01:19:36;;;;;;;1.43;0.90;;;15.80;90.50;;;;;;4993712;28;20187;-92
2024/01/02 01:22:03;;;;;;;1.93;1.03;;;15.70;90.40;;;;;;4994453;28;20277;-92
2024/01/02 01:24:29;;;;;;;1.43;1.00;;;15.70;90.40;;;;;;4997881;28;20204;-92
2024/01/02 01:26:54;;;;;;;1.57;1.10;;;15.80;90.50;;;;;;4998155;28;20168;-92
2024/01/02 01:29:22;;;;;;;2.67;1.17;;;15.80;90.40;;;;;;4997042;28;20597;-92
2024/01/02 01:31:48;;;;;;;1.60;1.07;;;15.80;90.40;;;;;;4997005;28;20582;-92
2024/01/02 01:34:17;;;;;;;1.50;0.90;;;15.80;90.40;;;;;;4997095;28;20584;-92
2024/01/02 01:36:46;;;;;;;1.83;1.00;;;15.80;90.40;;;;;;4997416;28;20337;-92
2024/01/02 01:39:12;;;;;;;1.17;0.90;;;15.80;90.30;;;;;;4996893;28;20260;-92
2024/01/02 01:41:41;;;;;;;1.57;1.00;;;15.80;90.30;;;;;;4997042;28;20224;-91
2024/01/02 01:44:07;;;;;;;1.20;0.90;;;15.80;90.30;;;;;;4994926;28;20170;-91
2024/01/02 01:46:45;;;;;;;1.27;0.90;;;15.80;90.30;;;;;;4996466;28;20448;-91
2024/01/02 01:49:11;;;;;;;1.00;0.90;;;15.80;90.30;;;;;;4996174;28;20556;-92
2024/01/02 01:51:40;;;;;;;1.60;0.90;;;15.80;90.30;;;;;;4996502;28;20169;-92
2024/01/02 01:54:11;;;;;;;2.23;1.00;;;15.70;90.30;;;;;;4992577;28;20269;-92
2024/01/02 01:56:41;;;;;;;1.07;0.90;;;15.80;90.30;;;;;;4995100;28;20170;-91
2024/01/02 01:59:09;;;;;;;1.70;1.00;;;15.80;90.20;;;;;;4994342;28;20242;-92
2024/01/02 02:01:39;;;;;;;2.23;1.00;;;15.70;90.20;;;;;;4995588;28;20179;-92
2024/01/02 02:04:07;;;;;;;1.13;1.00;;;15.80;90.20;;;;;;4995069;28;20175;-92
2024/01/02 02:06:36;;;;;;;1.57;0.80;;;15.80;90.20;;;;;;4995348;28;20221;-91
2024/01/02 02:09:02;;;;;;;0.93;0.80;;;15.80;90.20;;;;;;4995028;28;20178;-91
2024/01/02 02:11:33;;;;;;;1.80;1.00;;;15.70;90.20;;;;;;4996217;28;20464;-91
2024/01/02 02:14:02;;;;;;;1.43;0.90;;;15.80;90.20;;;;;;4995075;28;20470;-91
2024/01/02 02:16:28;;;;;;;1.00;0.80;;;15.80;90.20;;;;;;4995187;28;20179;-92
2024/01/02 02:18:58;;;;;;;1.40;0.93;;;15.80;90.20;;;;;;4994546;28;20278;-92
2024/01/02 02:21:27;;;;;;;1.27;0.90;;;15.80;90.20;;;;;;4996135;28;20563;-91
2024/01/02 02:23:56;;;;;;;1.87;0.90;;;15.80;90.20;;;;;;4995807;28;20173;-91
2024/01/02 02:26:21;;;;;;;1.40;0.93;;;15.70;90.20;;;;;;4996086;28;20206;-92
2024/01/02 02:28:47;;;;;;;1.50;1.00;;;15.80;90.20;;;;;;4996704;28;20256;-93
2024/01/02 02:31:17;;;;;;;1.00;0.87;;;15.70;90.20;;;;;;4996123;28;20171;-91
2024/01/02 02:33:43;;;;;;;1.50;1.07;;;15.70;90.20;;;;;;4994792;28;20171;-92
2024/01/02 02:36:11;;;;;;;1.40;0.83;;;15.70;90.20;;;;;;4994835;28;20647;-92
2024/01/02 02:38:37;;;;;;;1.03;0.70;;;15.70;90.20;;;;;;4995045;28;20281;-92
2024/01/02 02:41:04;;;;;;;1.13;0.90;;;15.70;90.20;;;;;;4993642;28;20315;-91
2024/01/02 02:43:30;;;;;;;0.80;0.70;;;15.70;90.20;;;;;;4994633;28;20554;-91
2024/01/02 02:45:56;;;;;;;1.07;0.80;;;15.70;90.20;;;;;;4993819;28;20662;-91
2024/01/02 02:48:21;;;;;;;1.20;0.83;;;15.70;90.10;;;;;;4992411;28;20744;-92
2024/01/02 02:50:51;;;;;;;1.53;0.90;;;15.70;90.10;;;;;;4993759;28;20270;-92
2024/01/02 02:53:19;;;;;;;1.60;1.00;;;15.70;90.10;;;;;;4995516;28;20209;-92
2024/01/02 02:55:45;;;;;;;1.87;0.90;;;15.70;90.10;;;;;;4995886;28;20648;-91
2024/01/02 02:58:11;;;;;;;1.27;0.80;;;15.70;90.00;;;;;;4995600;28;20344;-92
2024/01/02 03:00:40;;;;;;;0.97;0.70;;;15.70;90.00;;;;;;4994710;28;20421;-92
2024/01/02 03:03:08;;;;;;;0.80;0.80;;;15.70;90.00;;;;;;4994803;28;20184;-92
2024/01/02 03:05:37;;;;;;;1.33;0.70;;;15.70;90.00;;;;;;4993444;28;20354;-92
2024/01/02 03:08:05;;;;;;;1.17;1.00;;;15.70;90.00;;;;;;4994788;28;20202;-93
2024/01/02 03:10:31;;;;;;;0.67;0.67;;;15.70;90.00;;;;;;4996507;28;20272;-93
2024/01/02 03:12:57;;;;;;;0.57;0.57;;;15.70;90.00;;;;;;4995833;28;20258;-92
2024/01/02 03:15:26;;;;;;;1.30;0.80;;;15.70;90.10;;;;;;4995379;28;20254;-93
2024/01/02 03:17:52;;;;;;;0.73;0.67;;;15.60;90.10;;;;;;4996074;28;20188;-93
2024/01/02 03:20:17;;;;;;;0.60;0.53;;;15.60;90.10;;;;;;4995504;28;20460;-92
2024/01/02 03:22:46;;;;;;;0.93;0.83;;;15.60;90.10;;;;;;4995826;28;20335;-92
2024/01/02 03:25:15;;;;;;;0.70;0.70;;;15.60;90.10;;;;;;4996266;28;20212;-92
2024/01/02 03:27:41;;;;;;;1.03;0.70;;;15.60;90.00;;;;;;4987147;28;20174;-93
2024/01/02 03:30:13;;;;;;;0.90;0.67;;;15.60;90.10;;;;;;4999697;28;20330;-95
2024/01/02 03:32:39;;;;;;;0.93;0.70;;;15.60;90.10;;;;;;4995989;28;20192;-93
2024/01/02 03:35:22;;;;;;;0.90;0.60;;;15.60;90.20;;;;;;4995884;28;20179;-91
2024/01/02 03:37:54;;;;;;;1.20;0.63;;;15.60;90.10;;;;;;4999503;28;20547;-93
2024/01/02 03:40:28;;;;;;;0.60;0.60;;;15.60;90.10;;;;;;4999130;28;20185;-93
2024/01/02 03:42:54;;;;;;;0.70;0.60;;;15.50;90.00;;;;;;5000350;28;20186;-93
2024/01/02 03:45:19;;;;;;;1.00;0.60;;;15.50;90.10;;;;;;4996447;28;20206;-92
2024/01/02 03:47:48;;;;;;;0.60;0.50;;;15.50;90.10;;;;;;4997683;28;20275;-93
2024/01/02 03:50:14;;;;;;;1.03;0.70;;;15.50;90.00;;;;;;4994700;28;20187;-93
2024/01/02 03:52:41;;;;;;;0.60;0.60;;;15.50;90.00;;;;;;4996844;28;20264;-94
2024/01/02 03:55:09;;;;;;;0.57;0.40;;;15.50;90.00;;;;;;4994178;28;20277;-93
2024/01/02 03:57:41;;;;;;;0.50;0.50;;;15.50;90.00;;;;;;4994042;28;20241;-93
2024/01/02 04:00:11;;;;;;;0.77;0.57;;;15.50;90.00;;;;;;4995731;28;20176;-93
2024/01/02 04:02:39;;;;;;;0.50;0.50;;;15.50;90.00;;;;;;4993109;28;20250;-93
2024/01/02 04:05:10;;;;;;;0.80;0.60;;;15.50;90.00;;;;;;4994694;28;20266;-93
2024/01/02 04:07:36;;;;;;;0.73;0.57;;;15.50;90.10;;;;;;4994110;28;20198;-94
2024/01/02 04:10:02;;;;;;;1.50;0.57;;;15.50;90.10;;;;;;4996512;28;20192;-93
2024/01/02 04:12:28;;;;;;;0.40;0.40;;;15.50;90.20;;;;;;5002902;28;20552;-93
2024/01/02 04:14:54;;;;;;;0.83;0.77;;;15.40;90.20;;;;;;4998792;28;20180;-93
2024/01/02 04:17:20;;;;;;;0.43;0.43;;;15.30;90.40;;;;;;5002952;28;20206;-94
2024/01/02 04:19:46;;;;;;;0.67;0.50;;;15.30;90.50;;;;;;4995634;28;20260;-92
2024/01/02 04:22:14;;;;;;;0.90;0.40;;;15.20;90.60;;;;;;4996438;28;20179;-93
2024/01/02 04:25:08;;;;;;;0.60;0.60;;;15.20;90.80;;;;;;4995897;28;20268;-93
2024/01/02 04:27:34;;;;;;;1.03;0.60;;;15.10;90.90;;;;;;4993864;28;20179;-93
2024/01/02 04:30:20;;;;;;;1.07;0.60;;;15.10;91.10;;;;;;4996482;28;20178;-93
2024/01/02 04:32:45;;;;;;;0.60;0.40;;;15.00;91.20;;;;;;4997143;28;20654;-94
2024/01/02 04:35:11;;;;;;;0.60;0.60;;;15.00;91.30;;;;;;4998753;28;20177;-94
2024/01/02 04:37:37;;;;;;;0.50;0.50;;;15.30;90.80;;;;;;5001471;28;20193;-94
2024/01/02 04:40:05;;;;;;;0.80;0.50;;;15.40;90.40;;;;;;5001012;28;20262;-94
2024/01/02 04:42:38;;;;;;;0.50;0.50;;;15.50;90.30;;;;;;4997404;28;20596;-94
2024/01/02 04:45:05;;;;;;;0.50;0.50;;;15.60;90.00;;;;;;5000019;28;20295;-94
2024/01/02 04:47:33;;;;;;;0.47;0.47;;;15.70;89.60;;;;;;4997013;28;20181;-94
2024/01/02 04:50:04;;;;;;;0.50;0.50;;;15.80;88.90;;;;;;5000238;28;20388;-94
2024/01/02 04:52:30;;;;;;;0.53;0.50;;;15.90;88.00;;;;;;5000853;28;20161;-93
2024/01/02 04:54:59;;;;;;;0.57;0.57;;;16.10;87.00;;;;;;4999938;28;20184;-93
2024/01/02 04:57:31;;;;;;;0.60;0.50;;;16.30;86.00;;;;;;5000827;28;20460;-94
2024/01/02 04:59:57;;;;;;;0.43;0.43;;;16.50;84.80;;;;;;5007460;28;20177;-93
2024/01/02 05:02:32;;;;;;;0.40;0.40;;;16.60;83.80;;;;;;5003785;28;20279;-94
2024/01/02 05:04:58;;;;;;;0.47;0.47;;;16.80;82.70;;;;;;5005938;28;20205;-94
2024/01/02 05:07:24;;;;;;;0.60;0.60;;;17.00;81.50;;;;;;5005836;28;20205;-94
2024/01/02 05:09:49;;;;;;;0.40;0.40;;;17.00;80.70;;;;;;5001476;28;20248;-94
2024/01/02 05:12:17;;;;;;;0.30;0.30;;;17.10;80.00;;;;;;5001491;28;20269;-94
2024/01/02 05:14:43;;;;;;;0.40;0.40;;;17.20;79.20;;;;;;5002142;28;20172;-93
2024/01/02 05:17:09;;;;;;;0.30;0.30;;;17.40;78.40;;;;;;5003752;28;20193;-94
2024/01/02 05:19:35;;;;;;;0.40;0.40;;;17.50;77.70;;;;;;4997740;28;20216;-93
2024/01/02 05:22:01;;;;;;;0.53;0.47;;;17.50;77.40;;;;;;5003075;28;20207;-93
2024/01/02 05:24:27;;;;;;;0.63;0.63;;;17.50;77.30;;;;;;5002376;28;20197;-95
2024/01/02 05:26:53;;;;;;;0.53;0.43;;;17.50;77.00;;;;;;5001205;28;20177;-93
2024/01/02 05:29:18;;;;;;;0.33;0.33;;;17.50;77.20;;;;;;5000736;28;20174;-93
2024/01/02 05:31:47;;;;;;;0.33;0.33;;;17.50;77.20;;;;;;5000921;28;20186;-92
2024/01/02 05:34:16;;;;;;;0.30;0.30;;;17.50;77.20;;;;;;5000616;28;20456;-93
2024/01/02 05:36:46;;;;;;;0.40;0.40;;;17.40;77.30;;;;;;5000032;28;20170;-94
2024/01/02 05:39:19;;;;;;;0.40;0.40;;;17.50;77.30;;;;;;5000701;28;20170;-94
2024/01/02 05:41:45;;;;;;;0.40;0.30;;;17.40;77.40;;;;;;4998243;28;20228;-94
2024/01/02 05:44:13;;;;;;;0.33;0.33;;;17.40;77.50;;;;;;4996393;28;20174;-93
2024/01/02 05:46:40;;;;;;;1.10;0.50;;;17.40;77.60;;;;;;5000264;28;20175;-94
2024/01/02 05:49:06;;;;;;;0.57;0.40;;;17.40;77.80;;;;;;4996176;28;20180;-93
2024/01/02 05:51:32;;;;;;;0.40;0.40;;;17.40;77.90;;;;;;4999946;28;20208;-93
2024/01/02 05:53:58;;;;;;;0.70;0.60;;;17.40;78.00;;;;;;4997371;28;20178;-93
2024/01/02 05:56:24;;;;;;;0.40;0.40;;;17.40;78.00;;;;;;5000959;28;20178;-94
2024/01/02 05:58:53;;;;;;;0.30;0.30;;;17.40;77.70;;;;;;5000747;28;20313;-94
2024/01/02 06:01:19;;;;;;;0.40;0.40;;;17.40;77.60;;;;;;5000729;28;20185;-94
2024/01/02 06:03:44;;;;;;;0.30;0.30;;;17.40;77.90;;;;;;4995943;28;20289;-94
2024/01/02 06:06:11;;;;;;;0.40;0.40;;;17.30;78.20;;;;;;4995481;28;20210;-93
2024/01/02 06:08:36;;;;;;;0.40;0.40;;;17.30;78.40;;;;;;4997309;28;20208;-95
2024/01/02 06:11:02;;;;;;;1.27;0.40;;;17.30;78.60;;;;;;4997478;28;20193;-94
2024/01/02 06:13:28;;;;;;;0.30;0.30;;;17.30;78.80;;;;;;4996545;28;20201;-92
2024/01/02 06:15:54;;;;;;;0.63;0.50;;;17.20;78.80;;;;;;4994526;28;20209;-92
2024/01/02 06:18:20;;;;;;;0.30;0.30;;;17.20;79.00;;;;;;4995589;28;20208;-91
2024/01/02 06:20:45;;;;;;;0.30;0.30;;;17.20;78.90;;;;;;4994272;28;20237;-92
2024/01/02 06:23:11;;;;;;;0.30;0.30;;;17.30;78.80;;;;;;4994069;28;20607;-91
2024/01/02 06:25:40;;;;;;;0.30;0.30;;;17.30;79.50;;;;;;4992227;28;20599;-91
2024/01/02 06:28:07;;;;;;;0.20;0.20;;;17.30;78.90;;;;;;4994064;28;20225;-94
2024/01/02 06:30:32;;;;;;;0.40;0.40;;;17.20;79.20;;;;;;4993752;28;20202;-92
2024/01/02 06:33:01;;;;;;;0.50;0.50;;;17.20;79.50;;;;;;4992174;28;20205;-92
2024/01/02 06:35:26;;;;;;;0.70;0.40;;;17.10;81.10;;;;;;4992187;28;20182;-92
2024/01/02 06:37:52;;;;;;;0.50;0.30;;;17.10;82.00;;;;;;4993621;28;20178;-94
2024/01/02 06:40:18;;;;;;;1.33;0.40;;;17.10;82.80;;;;;;4992920;28;20246;-94
2024/01/02 06:42:47;;;;;;;0.40;0.40;;;17.10;83.50;;;;;;4991262;28;20186;-94
2024/01/02 06:45:13;;;;;;;0.80;0.60;;;17.10;84.10;;;;;;4990588;28;20241;-93
2024/01/02 06:47:39;;;;;;;0.33;0.33;;;17.00;84.50;;;;;;4992973;28;20536;-93
2024/01/02 06:50:07;;;;;;;0.53;0.50;;;17.10;85.10;;;;;;4993676;28;20182;-92
2024/01/02 06:52:32;;;;;;;0.70;0.40;;;17.00;85.40;;;;;;4992867;28;20624;-91
2024/01/02 06:55:01;;;;;;;0.50;0.50;;;17.00;86.50;;;;;;4990731;28;20189;-91
2024/01/02 06:57:29;;;;;;;0.40;0.40;;;17.00;86.50;;;;;;4992016;28;20205;-91
2024/01/02 06:59:58;;;;;;;0.73;0.40;;;17.00;87.00;;;;;;4990483;28;20193;-92
2024/01/02 07:02:24;;;;;;;0.47;0.40;;;17.00;87.50;;;;;;4989750;28;20186;-92
2024/01/02 07:04:49;;;;;;;1.17;0.50;;;17.00;87.90;;;;;;4990348;28;20213;-92
2024/01/02 07:07:18;;;;;;;0.43;0.40;;;17.00;88.00;;;;;;4991557;28;20190;-92
2024/01/02 07:09:47;;;;;;;0.70;0.40;;;16.90;88.70;;;;;;4995845;28;20455;-92
2024/01/02 07:12:13;;;;;;;1.10;0.50;;;17.00;88.60;;;;;;4993309;28;20277;-92
2024/01/02 07:14:40;;;;;;;0.50;0.50;;;17.00;89.40;;;;;;4992303;28;20539;-91
2024/01/02 07:17:07;;;;;;;0.93;0.50;;;17.00;89.40;;;;;;4990861;28;20185;-93
2024/01/02 07:19:34;;;;;;;1.07;0.40;;;17.00;89.80;;;;;;4991096;28;20248;-91
2024/01/02 07:22:03;;;;;;;0.50;0.50;;;17.00;90.00;;;;;;4989695;28;20282;-93
2024/01/02 07:24:32;;;;;;;0.60;0.50;;;17.00;90.10;;;;;;4990059;28;20259;-91
2024/01/02 07:27:00;;;;;;;0.43;0.43;;;17.00;90.30;;;;;;4991912;28;20186;-92
2024/01/02 07:29:26;;;;;;;0.93;0.50;;;17.00;90.30;;;;;;4990996;28;20272;-91
2024/01/02 07:31:53;;;;;;;0.73;0.50;;;17.00;90.40;;;;;;4992748;28;20261;-92
2024/01/02 07:34:21;;;;;;;0.50;0.50;;;17.00;90.40;;;;;;4991114;28;20246;-91
2024/01/02 07:36:50;;;;;;;1.00;0.47;;;17.00;90.60;;;;;;4992327;28;20472;-92
2024/01/02 07:39:16;;;;;;;0.73;0.50;;;17.00;90.40;;;;;;4990922;28;20174;-91
2024/01/02 07:41:45;;;;;;;3.13;0.50;;;16.90;90.70;;;;;;4988362;28;20454;-91
2024/01/02 07:44:13;;;;;;;0.60;0.43;;;16.90;90.60;;;;;;4990437;28;20312;-92
2024/01/02 07:46:39;;;;;;;1.40;0.50;;;16.90;90.80;;;;;;4990200;28;20212;-91
2024/01/02 07:49:05;;;;;;;0.63;0.40;;;16.90;90.90;;;;;;4987637;28;20224;-91
2024/01/02 07:51:34;;;;;;;0.93;0.57;;;16.90;90.90;;;;;;4989756;28;20440;-91
2024/01/02 07:54:03;;;;;;;0.50;0.50;;;16.90;91.10;;;;;;4988774;28;20193;-91
2024/01/02 07:56:30;;;;;;;1.97;0.50;;;16.90;91.20;;;;;;4986815;28;20175;-91
2024/01/02 07:58:56;;;;;;;0.50;0.50;;;16.90;91.30;;;;;;4988864;28;20635;-91
2024/01/02 08:01:25;;;;;;;2.60;0.60;;;16.90;91.30;;;;;;4986725;28;20272;-90
2024/01/02 08:03:51;;;;;;;0.80;0.50;;;17.00;91.40;;;;;;4983735;28;20185;-91
2024/01/02 08:06:19;;;;;;;0.80;0.50;;;17.10;91.10;;;;;;4984721;28;20304;-90
2024/01/02 08:08:48;;;;;;;0.40;0.40;;;17.20;90.90;;;;;;4984645;28;20186;-91
2024/01/02 08:11:13;;;;;;;0.23;0.23;;;17.30;90.80;;;;;;4984790;28;20170;-92
2024/01/02 08:13:39;;;;;;;0.40;0.40;;;17.30;91.00;;;;;;4986156;28;20200;-91
2024/01/02 08:16:05;;;;;;;0.40;0.40;;;17.20;91.00;;;;;;4986176;28;20185;-91
2024/01/02 08:18:33;;;;;;;0.40;0.40;;;17.20;91.10;;;;;;4985342;28;20254;-91
2024/01/02 08:20:59;;;;;;;0.40;0.40;;;17.20;91.30;;;;;;4987669;28;20170;-91
2024/01/02 08:23:25;;;;;;;0.30;0.30;;;17.20;91.30;;;;;;4985752;28;20770;-91
2024/01/02 08:25:51;;;;;;;0.50;0.40;;;17.30;91.40;;;;;;4987972;28;20567;-92
2024/01/02 08:28:18;;;;;;;0.37;0.37;;;17.30;91.30;;;;;;4988856;28;20273;-91
2024/01/02 08:30:48;;;;;;;0.40;0.40;;;17.30;91.50;;;;;;4989208;28;20186;-91
2024/01/02 08:33:17;;;;;;;1.13;0.50;;;17.30;91.50;;;;;;4991630;28;20248;-91
2024/01/02 08:36:12;;;;;;;0.37;0.37;;;17.40;91.60;;;;;;4993476;28;20237;-90
2024/01/02 08:38:40;;;;;;;1.60;0.40;;;17.40;91.70;;;;;;4978727;28;20289;-91
2024/01/02 08:41:07;;;;;;;0.50;0.40;;;17.30;91.90;;;;;;4993134;28;20469;-91
2024/01/02 08:43:36;;;;;;;0.50;0.50;;;17.40;91.90;;;;;;5004241;28;20473;-92
2024/01/02 08:46:02;;;;;;;0.73;0.40;;;17.40;91.90;;;;;;4992500;28;20209;-91
2024/01/02 08:48:28;;;;;;;0.40;0.40;;;17.30;92.10;;;;;;4971758;28;20376;-92
2024/01/02 08:50:53;;;;;;;0.43;0.43;;;17.30;92.10;;;;;;4976299;28;20304;-91
2024/01/02 08:53:19;;;;;;;0.30;0.30;;;17.40;92.30;;;;;;4981962;28;20193;-92
2024/01/02 08:55:45;;;;;;;0.40;0.40;;;17.30;92.30;;;;;;4991978;28;20188;-92
2024/01/02 08:58:12;;;;;;;0.30;0.30;;;17.30;92.50;;;;;;4977212;28;20229;-92
2024/01/02 09:00:38;;;;;;;0.40;0.40;;;17.30;92.50;;;;;;4988740;28;20207;-91
2024/01/02 09:03:05;;;;;;;0.40;0.40;;;17.30;92.70;;;;;;4983984;28;20450;-91
2024/01/02 09:05:34;;;;;;;1.03;0.50;;;17.30;92.80;;;;;;4972365;28;20210;-92
2024/01/02 09:08:01;;;;;;;0.47;0.40;;;17.30;92.80;;;;;;4982764;28;20840;-91
2024/01/02 09:10:29;;;;;;;0.47;0.30;;;17.30;92.90;;;;;;4977078;28;20178;-92
2024/01/02 09:12:58;;;;;;;0.30;0.30;;;17.20;93.00;;;;;;4983719;28;20181;-91
2024/01/02 09:15:42;;;;;;;0.33;0.33;;;17.30;93.10;;;;;;4995072;28;20182;-92
2024/01/02 09:18:08;;;;;;;0.60;0.50;;;17.20;93.10;;;;;;4989836;28;20176;-91
2024/01/02 09:20:34;;;;;;;0.43;0.43;;;17.20;93.30;;;;;;4991027;28;20312;-92
2024/01/02 09:23:03;;;;;;;0.40;0.40;;;17.20;93.30;;;;;;4993183;28;20313;-91
2024/01/02 09:25:31;;;;;;;0.93;0.50;;;17.20;93.50;;;;;;4993439;28;20202;-91
2024/01/02 09:27:59;;;;;;;0.40;0.40;;;17.20;93.50;;;;;;4992742;28;20550;-90
2024/01/02 09:30:25;;;;;;;0.50;0.50;;;17.40;93.40;;;;;;4990452;28;20166;-91
2024/01/02 09:32:50;;;;;;;0.60;0.40;;;17.40;93.30;;;;;;4990448;28;20166;-91
2024/01/02 09:35:17;;;;;;;0.40;0.40;;;17.40;93.30;;;;;;4990583;28;20552;-90
2024/01/02 09:37:44;;;;;;;0.30;0.30;;;17.50;93.10;;;;;;4989073;28;20180;-90
2024/01/02 09:40:41;;;;;;;0.40;0.40;;;17.40;93.20;;;;;;4990695;28;20170;-91
2024/01/02 09:43:23;;;;;;;0.43;0.43;;;17.40;93.30;;;;;;4990278;28;20442;-90
2024/01/02 09:46:10;;;;;;;0.37;0.30;;;17.40;93.30;;;;;;4991936;28;20503;-90
2024/01/02 09:49:16;;;;;;;0.40;0.40;;;17.40;93.40;;;;;;4993066;28;20418;-90
2024/01/02 09:52:05;;;;;;;0.30;0.30;;;17.40;93.30;;;;;;4994968;28;20539;-90
2024/01/02 09:55:15;;;;;;;0.53;0.40;;;17.40;93.70;;;;;;4992027;28;20426;-90
2024/01/02 09:57:51;;;;;;;1.03;0.60;;;17.40;93.70;;;;;;4990585;28;20179;-90
2024/01/02 10:00:34;;;;;;;0.40;0.40;;;17.40;93.80;;;;;;4986878;28;20178;-90
2024/01/02 10:03:10;;;;;;;1.90;0.40;;;17.30;93.70;;;;;;4990396;28;20170;-91
2024/01/02 10:06:01;;;;;;;0.90;0.43;;;17.30;93.90;;;;;;4993306;28;20202;-90
2024/01/02 10:08:52;;;;;;;0.40;0.40;;;17.30;93.90;;;;;;4993849;28;20194;-90
2024/01/02 10:11:47;;;;;;;0.97;0.40;;;17.30;94.00;;;;;;4982811;28;20178;-89
2024/01/02 10:14:25;;;;;;;0.50;0.50;;;17.30;94.20;;;;;;4992337;28;20174;-90
2024/01/02 10:17:23;;;;;;;2.90;0.53;;;17.30;94.10;;;;;;4992431;28;20556;-90
2024/01/02 10:20:16;;;;;;;1.07;0.40;;;17.30;94.30;;;;;;4991934;28;20184;-90
2024/01/02 10:23:03;;;;;;;1.40;0.50;;;17.30;94.40;;;;;;4988924;28;20175;-90
2024/01/02 10:25:40;;;;;;;2.63;0.40;;;17.30;94.40;;;;;;4990999;28;20305;-90
2024/01/02 10:28:34;;;;;;;3.23;0.47;;;17.30;94.50;;;;;;4972328;28;20490;-90
2024/01/02 10:31:06;;;;;;;0.90;0.40;;;17.30;94.70;;;;;;4990434;28;21049;-90
2024/01/02 10:33:43;;;;;;;0.70;0.50;;;17.30;94.70;;;;;;4997265;28;20416;-90
2024/01/02 10:36:11;;;;;;;0.50;0.50;;;17.30;94.80;;;;;;4989360;28;20280;-91
2024/01/02 10:39:04;;;;;;;1.03;0.50;;;17.30;94.80;;;;;;4991637;28;20175;-90
2024/01/02 10:41:49;;;;;;;1.80;0.53;;;17.30;94.80;;;;;;4989376;28;20163;-90
2024/01/02 10:44:36;;;;;;;0.40;0.40;;;17.30;94.90;;;;;;4990083;28;20194;-90
2024/01/02 10:47:37;;;;;;;0.73;0.53;;;17.30;95.00;;;;;;4987270;28;20248;-90
2024/01/02 10:50:04;;;;;;;0.50;0.50;;;17.30;95.00;;;;;;4991184;28;20556;-90
2024/01/02 10:52:39;;;;;;;0.40;0.40;;;17.30;95.00;;;;;;4986896;28;20174;-90
2024/01/02 10:55:28;;;;;;;1.17;0.30;;;17.30;95.10;;;;;;4988490;28;20293;-90
2024/01/02 10:58:06;;;;;;;2.63;0.60;;;17.30;95.10;;;;;;4978824;28;20198;-90
2024/01/02 11:00:42;;;;;;;0.70;0.50;;;17.30;95.00;;;;;;4988323;28;20166;-90
2024/01/02 11:03:10;;;;;;;0.50;0.50;;;17.30;95.10;;;;;;4987799;28;20234;-90
2024/01/02 11:05:44;;;;;;;0.50;0.50;;;17.40;95.30;;;;;;4986869;28;20206;-90
2024/01/02 11:08:24;;;;;;;3.30;0.57;;;17.30;95.30;;;;;;4988518;28;20228;-90
2024/01/02 11:11:06;;;;;;;0.53;0.53;;;17.40;95.30;;;;;;4988576;28;20229;-90
2024/01/02 11:13:43;;;;;;;0.70;0.70;;;17.40;95.40;;;;;;4991187;28;20189;-92
2024/01/02 11:16:17;;;;;;;1.00;0.60;;;17.40;95.50;;;;;;4991069;28;20182;-90
2024/01/02 11:18:47;;;;;;;0.80;0.50;;;17.30;95.50;;;;;;4989287;28;20299;-90
2024/01/02 11:21:23;;;;;;;1.40;0.60;;;17.30;95.50;;;;;;4988213;28;20434;-90
2024/01/02 11:23:53;;;;;;;0.60;0.50;;;17.30;95.50;;;;;;4991115;28;20271;-92
2024/01/02 11:26:30;;;;;;;2.67;0.70;;;17.30;95.60;;;;;;4991105;28;20190;-91
2024/01/02 11:29:19;;;;;;;1.10;0.63;;;17.40;95.50;;;;;;4990297;28;20630;-90
2024/01/02 11:31:50;;;;;;;1.03;0.60;;;17.40;95.40;;;;;;4988900;28;20205;-90
2024/01/02 11:34:31;;;;;;;0.63;0.60;;;17.40;95.40;;;;;;4989362;28;20556;-90
2024/01/02 11:37:32;;;;;;;1.73;0.60;;;17.30;95.40;;;;;;4990363;28;20169;-90
2024/01/02 11:40:20;;;;;;;0.60;0.60;;;17.40;95.40;;;;;;4988238;28;20593;-92
2024/01/02 11:43:27;;;;;;;0.60;0.60;;;17.40;95.30;;;;;;4991423;28;20348;-91
2024/01/02 11:45:57;;;;;;;0.93;0.60;;;17.40;95.40;;;;;;4910820;29;20200;-90
2024/01/02 11:48:47;;;;;;;1.10;0.50;;;17.40;95.40;;;;;;4979850;28;20239;-91
2024/01/02 11:51:29;;;;;;;1.13;0.50;;;17.30;95.30;;;;;;4987303;28;20237;-90
2024/01/02 11:54:13;;;;;;;0.93;0.60;;;17.30;95.40;;;;;;4987007;28;20277;-90
2024/01/02 11:56:40;;;;;;;0.60;0.60;;;17.30;95.40;;;;;;4988359;28;20185;-91
2024/01/02 11:59:28;;;;;;;0.50;0.50;;;17.30;95.40;;;;;;4985313;28;20186;-92
2024/01/02 12:02:17;;;;;;;1.00;0.60;;;17.30;95.40;;;;;;4988984;28;20681;-91
2024/01/02 12:04:48;;;;;;;0.73;0.70;;;17.30;95.40;;;;;;4987142;28;20202;-91
2024/01/02 12:07:27;;;;;;;0.80;0.80;;;17.30;95.50;;;;;;4987381;28;20272;-92
2024/01/02 12:09:58;;;;;;;0.70;0.70;;;17.30;95.50;;;;;;4989226;28;20236;-91
2024/01/02 12:12:51;;;;;;;1.20;0.80;;;17.30;95.50;;;;;;4989700;28;20237;-90
2024/01/02 12:15:40;;;;;;;1.17;1.00;;;17.30;95.50;;;;;;4978783;28;20190;-91
2024/01/02 12:18:09;;;;;;;1.70;0.90;;;17.30;95.50;;;;;;4991256;28;20556;-91
2024/01/02 12:20:44;;;;;;;1.00;0.80;;;17.20;95.50;;;;;;4989303;28;20177;-90
2024/01/02 12:23:17;;;;;;;2.00;0.80;;;17.20;95.50;;;;;;4989583;28;20269;-92
2024/01/02 12:25:45;;;;;;;1.47;0.87;;;17.20;95.50;;;;;;4989840;28;20376;-92
2024/01/02 12:28:11;;;;;;;1.00;0.80;;;17.30;95.50;;;;;;4988563;28;20592;-90
2024/01/02 12:30:42;;;;;;;0.93;0.87;;;17.20;95.50;;;;;;4987050;28;20174;-90
2024/01/02 12:33:29;;;;;;;0.90;0.77;;;17.20;95.60;;;;;;4989268;28;20183;-91
2024/01/02 12:36:16;;;;;;;2.10;0.90;;;17.20;95.50;;;;;;4976193;28;20203;-91
2024/01/02 12:38:54;;;;;;;0.70;0.70;;;17.30;95.50;;;;;;4988049;28;20182;-92
2024/01/02 12:41:25;;;;;;;1.30;0.80;;;17.20;95.50;;;;;;4990611;28;20575;-92
2024/01/02 12:43:57;;;;;;;0.80;0.80;;;17.20;95.60;;;;;;4986903;28;20182;-91
2024/01/02 12:46:50;;;;;;;0.80;0.70;;;17.20;95.50;;;;;;4991107;28;20206;-91
2024/01/02 12:49:50;;;;;;;0.80;0.80;;;17.20;95.60;;;;;;4986652;28;20194;-91
2024/01/02 12:52:22;;;;;;;0.70;0.70;;;17.20;95.60;;;;;;4989954;28;20193;-91
2024/01/02 12:54:51;;;;;;;0.67;0.67;;;17.20;95.50;;;;;;4988132;28;20189;-91
2024/01/02 12:57:20;;;;;;;1.17;0.77;;;17.20;95.50;;;;;;4990300;28;20186;-90
2024/01/02 12:59:46;;;;;;;0.83;0.80;;;17.20;95.50;;;;;;4989161;28;20552;-91
2024/01/02 13:02:13;;;;;;;0.70;0.63;;;17.20;95.50;;;;;;4989522;28;20501;-91
2024/01/02 13:04:39;;;;;;;1.70;0.83;;;17.20;95.50;;;;;;4987815;28;20174;-93
2024/01/02 13:07:07;;;;;;;0.80;0.80;;;17.20;95.60;;;;;;4986569;28;20182;-92